createdAt,value
2022-09-28T00:00:26.223Z,95414.42
2022-09-28T00:03:14.270Z,95408.38
2022-09-28T00:05:42.462Z,95408.46
2022-09-28T00:08:13.740Z,95407.34
2022-09-28T00:10:43.491Z,95406.59
2022-09-28T00:13:11.596Z,95401.67
2022-09-28T00:16:10.870Z,95404.90
2022-09-28T00:18:39.177Z,95404.66
2022-09-28T00:21:13.126Z,95402.98
2022-09-28T00:24:01.160Z,95404.11
2022-09-28T00:26:31.427Z,95401.34
2022-09-28T00:29:01.779Z,95404.20
2022-09-28T00:31:34.758Z,95413.72
2022-09-28T00:34:05.046Z,95415.59
2022-09-28T00:36:36.052Z,95412.87
2022-09-28T00:39:07.358Z,95409.42
2022-09-28T00:41:43.303Z,95404.97
2022-09-28T00:44:27.247Z,95398.52
2022-09-28T00:47:31.816Z,95397.17
2022-09-28T00:50:42.438Z,95390.50
2022-09-28T00:53:13.778Z,95390.27
2022-09-28T00:55:58.265Z,95394.05
2022-09-28T00:58:36.626Z,95398.11
2022-09-28T01:04:03.240Z,95389.15
2022-09-28T01:06:36.289Z,95381.13
2022-09-28T01:09:08.914Z,95382.63
2022-09-28T01:11:39.538Z,95384.69
2022-09-28T01:14:14.094Z,95390.67
2022-09-28T01:17:05.467Z,95397.28
2022-09-28T01:20:13.449Z,95409.43
2022-09-28T01:23:17.485Z,95404.67
2022-09-28T01:25:59.913Z,95400.92
2022-09-28T01:28:29.731Z,95400.98
2022-09-28T01:31:18.106Z,95407.56
2022-09-28T01:34:00.722Z,95414.00
2022-09-28T01:36:36.916Z,95412.17
2022-09-28T01:39:15.293Z,95416.77
2022-09-28T01:41:52.535Z,95417.31
2022-09-28T01:44:23.420Z,95422.17
2022-09-28T01:46:59.419Z,95426.89
2022-09-28T01:49:36.364Z,95427.09
2022-09-28T01:52:13.938Z,95425.73
2022-09-28T01:54:52.099Z,95426.33
2022-09-28T01:57:23.994Z,95427.23
2022-09-28T02:00:03.293Z,95425.90
2022-09-28T02:02:55.087Z,95425.16
2022-09-28T02:05:37.250Z,95424.41
2022-09-28T02:08:10.250Z,95422.89
2022-09-28T02:10:50.083Z,95429.27
2022-09-28T02:13:34.127Z,95431.20
2022-09-28T02:16:43.618Z,95427.40
2022-09-28T02:19:21.434Z,95423.23
2022-09-28T02:22:14.259Z,95419.83
2022-09-28T02:25:13.419Z,95417.81
2022-09-28T02:27:52.077Z,95426.54
2022-09-28T02:30:20.618Z,95436.27
2022-09-28T02:32:57.201Z,95438.61
2022-09-28T02:35:27.590Z,95439.56
2022-09-28T02:37:56.711Z,95447.28
2022-09-28T02:40:40.436Z,95455.14
2022-09-28T02:43:31.223Z,95454.54
2022-09-28T02:46:10.360Z,95463.82
2022-09-28T02:49:20.904Z,95466.60
2022-09-28T02:51:50.279Z,95465.59
2022-09-28T02:54:20.898Z,95458.94
2022-09-28T02:57:02.549Z,95448.17
2022-09-28T02:59:43.110Z,95450.23
2022-09-28T03:02:26.240Z,95451.52
2022-09-28T03:05:03.782Z,95447.83
2022-09-28T03:07:57.440Z,95457.14
2022-09-28T03:10:31.224Z,95448.65
2022-09-28T03:13:00.136Z,95448.73
2022-09-28T03:15:32.005Z,95448.38
2022-09-28T03:18:11.862Z,95461.20
2022-09-28T03:20:39.987Z,95461.95
2022-09-28T03:23:25.453Z,95457.95
2022-09-28T03:25:54.607Z,95452.00
2022-09-28T03:28:23.450Z,95450.10
2022-09-28T03:30:51.852Z,95451.92
2022-09-28T03:33:20.315Z,95453.96
2022-09-28T03:35:53.561Z,95455.26
2022-09-28T03:38:25.609Z,95460.44
2022-09-28T03:40:58.927Z,95462.79
2022-09-28T03:43:29.947Z,95470.23
2022-09-28T03:46:10.471Z,95470.04
2022-09-28T03:48:43.190Z,95477.14
2022-09-28T03:51:16.284Z,95482.55
2022-09-28T03:53:45.173Z,95486.81
2022-09-28T03:56:15.692Z,95492.52
2022-09-28T03:58:45.870Z,95491.45
2022-09-28T04:01:18.504Z,95488.70
2022-09-28T04:03:52.928Z,95497.36
2022-09-28T04:06:21.090Z,95506.02
2022-09-28T04:08:49.321Z,95513.12
2022-09-28T04:11:43.033Z,95494.36
2022-09-28T04:14:20.276Z,95487.94
2022-09-28T04:16:49.071Z,95515.69
2022-09-28T04:19:40.669Z,95501.88
2022-09-28T04:22:19.450Z,95508.88
2022-09-28T04:24:53.214Z,95498.70
2022-09-28T04:27:42.173Z,95495.73
2022-09-28T04:30:11.426Z,95502.75
2022-09-28T04:32:41.970Z,95508.95
2022-09-28T04:35:12.155Z,95524.27
2022-09-28T04:37:41.736Z,95525.38
2022-09-28T04:40:10.355Z,95527.59
2022-09-28T04:42:39.181Z,95530.83
2022-09-28T04:45:08.278Z,95527.41
2022-09-28T04:47:45.479Z,95529.35
2022-09-28T04:50:29.072Z,95532.68
2022-09-28T04:53:19.923Z,95534.23
2022-09-28T04:56:04.076Z,95535.31
2022-09-28T04:58:34.460Z,95530.84
2022-09-28T05:01:07.018Z,95531.29
2022-09-28T05:03:54.923Z,95529.73
2022-09-28T05:06:33.830Z,95531.85
2022-09-28T05:09:09.826Z,95535.69
2022-09-28T05:11:38.297Z,95543.50
2022-09-28T05:14:12.292Z,95555.09
2022-09-28T05:16:42.948Z,95567.09
2022-09-28T05:19:23.331Z,95575.85
2022-09-28T05:21:52.647Z,95568.26
2022-09-28T05:24:20.795Z,95560.41
2022-09-28T05:26:52.191Z,95554.18
2022-09-28T05:29:20.778Z,95560.69
2022-09-28T05:31:49.449Z,95570.27
2022-09-28T05:34:38.739Z,95570.68
2022-09-28T05:37:07.110Z,95573.02
2022-09-28T05:39:39.497Z,95575.96
2022-09-28T05:42:18.911Z,95587.63
2022-09-28T05:44:47.255Z,95587.89
2022-09-28T05:47:16.010Z,95582.36
2022-09-28T05:49:44.509Z,95584.42
2022-09-28T05:52:14.313Z,95577.45
2022-09-28T05:54:46.980Z,95580.55
2022-09-28T05:57:15.845Z,95574.18
2022-09-28T05:59:43.924Z,95583.52
2022-09-28T06:02:12.465Z,95589.80
2022-09-28T06:04:43.711Z,95593.77
2022-09-28T06:07:12.607Z,95591.91
2022-09-28T06:09:41.072Z,95603.20
2022-09-28T06:12:17.188Z,95613.88
2022-09-28T06:14:49.512Z,95612.38
2022-09-28T06:17:18.365Z,95613.75
2022-09-28T06:19:52.417Z,95617.24
2022-09-28T06:22:30.645Z,95613.98
2022-09-28T06:25:08.504Z,95614.72
2022-09-28T06:27:37.400Z,95610.86
2022-09-28T06:30:06.176Z,95618.95
2022-09-28T06:32:34.626Z,95629.73
2022-09-28T06:35:02.835Z,95631.64
2022-09-28T06:37:33.235Z,95630.58
2022-09-28T06:40:02.729Z,95610.45
2022-09-28T06:42:31.875Z,95607.35
2022-09-28T06:45:53.277Z,95616.55
2022-09-28T06:48:26.374Z,95618.05
2022-09-28T06:50:57.841Z,95618.30
2022-09-28T06:53:28.703Z,95622.71
2022-09-28T06:56:01.019Z,95626.57
2022-09-28T06:58:30.546Z,95619.13
2022-09-28T07:01:18.934Z,95611.52
2022-09-28T07:03:57.969Z,95624.05
2022-09-28T07:07:01.465Z,95630.70
2022-09-28T07:09:52.348Z,95633.49
2022-09-28T07:12:32.417Z,95634.60
2022-09-28T07:15:04.047Z,95632.10
2022-09-28T07:17:41.976Z,95620.30
2022-09-28T07:20:21.089Z,95622.33
2022-09-28T07:23:15.821Z,95632.27
2022-09-28T07:26:09.083Z,95636.13
2022-09-28T07:28:53.179Z,95635.98
2022-09-28T07:32:01.635Z,95639.38
2022-09-28T07:34:46.451Z,95642.83
2022-09-28T07:37:58.894Z,95643.95
2022-09-28T07:40:58.261Z,95655.23
2022-09-28T07:43:27.260Z,95653.23
2022-09-28T07:45:55.980Z,95651.80
2022-09-28T07:48:25.487Z,95653.77
2022-09-28T07:51:13.884Z,95660.03
2022-09-28T08:07:03.358Z,95659.98
2022-09-28T08:09:32.987Z,95666.70
2022-09-28T08:12:20.742Z,95675.52
2022-09-28T08:15:00.806Z,95675.23
2022-09-28T08:17:49.597Z,95668.92
2022-09-28T08:20:38.813Z,95671.63
2022-09-28T08:23:08.773Z,95673.84
2022-09-28T08:25:38.375Z,95680.06
2022-09-28T08:28:07.528Z,95680.23
2022-09-28T08:30:42.857Z,95683.25
2022-09-28T08:33:37.325Z,95682.22
2022-09-28T08:36:27.804Z,95680.47
2022-09-28T08:38:56.288Z,95676.20
2022-09-28T08:41:43.606Z,95669.45
2022-09-28T08:44:40.336Z,95662.98
2022-09-28T08:47:53.439Z,95663.95
2022-09-28T08:50:54.568Z,95667.08
2022-09-28T08:53:57.741Z,95669.27
2022-09-28T08:57:02.444Z,95665.14
2022-09-28T08:59:53.175Z,95663.04
2022-09-28T09:02:34.685Z,95663.05
2022-09-28T09:05:20.050Z,95667.27
2022-09-28T09:08:39.343Z,95676.92
2022-09-28T09:11:22.572Z,95684.16
2022-09-28T09:14:11.930Z,95681.97
2022-09-28T09:17:00.657Z,95683.05
2022-09-28T09:20:13.688Z,95681.19
2022-09-28T09:23:01.794Z,95682.07
2022-09-28T09:25:55.862Z,95685.51
2022-09-28T09:28:56.800Z,95685.38
2022-09-28T09:31:47.620Z,95688.00
2022-09-28T09:34:18.600Z,95693.54
2022-09-28T09:36:58.704Z,95703.99
2022-09-28T09:40:26.550Z,95702.94
2022-09-28T09:43:31.685Z,95704.86
2022-09-28T09:46:42.082Z,95696.63
2022-09-28T09:49:34.810Z,95698.75
2022-09-28T09:52:26.662Z,95701.20
2022-09-28T09:55:17.104Z,95701.59
2022-09-28T09:58:03.362Z,95705.48
2022-09-28T10:00:40.547Z,95690.34
2022-09-28T10:03:29.593Z,95685.13
2022-09-28T10:06:12.910Z,95688.40
2022-09-28T10:08:46.254Z,95686.06
2022-09-28T10:11:25.816Z,95690.83
2022-09-28T10:13:55.462Z,95691.93
2022-09-28T10:16:43.257Z,95693.81
2022-09-28T10:19:19.252Z,95691.98
2022-09-28T10:22:26.335Z,95695.70
2022-09-28T10:24:57.628Z,95697.73
2022-09-28T10:27:33.858Z,95696.67
2022-09-28T10:30:11.224Z,95701.98
2022-09-28T10:32:46.213Z,95705.13
2022-09-28T10:35:20.521Z,95696.20
2022-09-28T10:38:05.525Z,95694.76
2022-09-28T10:40:55.356Z,95696.61
2022-09-28T10:44:06.530Z,95695.64
2022-09-28T10:47:10.073Z,95687.83
2022-09-28T10:49:47.417Z,95690.68
2022-09-28T10:52:37.477Z,95687.50
2022-09-28T10:55:20.803Z,95686.23
2022-09-28T10:57:50.540Z,95685.60
2022-09-28T11:00:44.849Z,95678.80
2022-09-28T11:03:26.772Z,95676.61
2022-09-28T11:06:08.058Z,95675.86
2022-09-28T11:08:42.063Z,95671.30
2022-09-28T11:11:17.022Z,95667.42
2022-09-28T11:14:03.879Z,95668.55
2022-09-28T11:16:36.734Z,95666.61
2022-09-28T11:19:30.845Z,95664.44
2022-09-28T11:22:21.148Z,95667.30
2022-09-28T11:24:51.236Z,95666.43
2022-09-28T11:27:22.623Z,95668.26
2022-09-28T11:30:00.827Z,95668.20
2022-09-28T11:32:44.839Z,95669.45
2022-09-28T11:35:44.350Z,95667.78
2022-09-28T11:38:40.806Z,95665.81
2022-09-28T11:41:46.782Z,95666.96
2022-09-28T11:44:39.889Z,95669.04
2022-09-28T11:47:34.941Z,95668.59
2022-09-28T11:50:30.640Z,95668.66
2022-09-28T11:53:34.425Z,95668.02
2022-09-28T11:56:09.071Z,95671.52
2022-09-28T11:58:49.254Z,95672.45
2022-09-28T12:01:56.712Z,95672.46
2022-09-28T12:04:46.736Z,95676.40
2022-09-28T12:07:25.562Z,95682.14
2022-09-28T12:10:00.465Z,95687.30
2022-09-28T12:12:53.639Z,95688.55
2022-09-28T12:15:27.242Z,95686.40
2022-09-28T12:18:02.175Z,95684.14
2022-09-28T12:20:39.437Z,95686.83
2022-09-28T12:23:15.668Z,95690.30
2022-09-28T12:25:48.357Z,95686.94
2022-09-28T12:28:19.568Z,95690.41
2022-09-28T12:30:49.467Z,95689.54
2022-09-28T12:33:17.941Z,95691.08
2022-09-28T12:35:50.477Z,95687.72
2022-09-28T12:39:17.534Z,95688.74
2022-09-28T12:42:00.204Z,95688.86
2022-09-28T12:44:59.475Z,95685.39
2022-09-28T12:47:46.698Z,95685.52
2022-09-28T12:50:38.602Z,95687.63
2022-09-28T12:53:20.318Z,95688.79
2022-09-28T12:56:03.770Z,95692.64
2022-09-28T12:58:44.386Z,95694.08
2022-09-28T13:01:31.051Z,95694.39
2022-09-28T13:04:08.309Z,95696.25
2022-09-28T13:07:03.463Z,95695.89
2022-09-28T13:09:38.827Z,95695.15
2022-09-28T13:12:32.047Z,95694.62
2022-09-28T13:15:32.336Z,95694.96
2022-09-28T13:18:35.448Z,95695.00
2022-09-28T13:21:03.781Z,95698.92
2022-09-28T13:23:37.573Z,95699.08
2022-09-28T13:26:28.137Z,95695.64
2022-09-28T13:29:05.257Z,95692.89
2022-09-28T13:31:37.178Z,95693.30
2022-09-28T13:34:20.573Z,95697.23
2022-09-28T13:37:16.971Z,95700.19
2022-09-28T13:39:44.946Z,95700.96
2022-09-28T13:42:27.726Z,95703.38
2022-09-28T13:45:22.247Z,95704.00
2022-09-28T13:47:51.835Z,95706.15
2022-09-28T13:50:53.225Z,95701.91
2022-09-28T13:53:36.285Z,95702.91
2022-09-28T13:56:22.870Z,95705.34
2022-09-28T13:58:53.994Z,95703.73
2022-09-28T14:01:37.353Z,95700.52
2022-09-28T14:04:15.812Z,95701.61
2022-09-28T14:07:08.777Z,95703.60
2022-09-28T14:10:18.589Z,95703.60
2022-09-28T14:12:55.138Z,95701.85
2022-09-28T14:15:29.629Z,95703.47
2022-09-28T14:18:22.098Z,95710.50
2022-09-28T14:21:02.641Z,95713.20
2022-09-28T14:23:58.944Z,95713.70
2022-09-28T14:26:27.989Z,95708.66
2022-09-28T14:29:29.338Z,95706.14
2022-09-28T14:31:59.289Z,95710.45
2022-09-28T14:34:34.128Z,95714.01
2022-09-28T14:37:24.160Z,95713.62
2022-09-28T14:40:11.001Z,95713.79
2022-09-28T14:42:40.266Z,95711.80
2022-09-28T14:45:08.401Z,95710.91
2022-09-28T14:47:44.878Z,95711.91
2022-09-28T14:50:27.779Z,95716.41
2022-09-28T14:53:12.452Z,95711.65
2022-09-28T14:55:57.844Z,95707.59
2022-09-28T14:58:29.905Z,95707.94
2022-09-28T15:01:16.156Z,95707.40
2022-09-28T15:03:48.925Z,95707.11
2022-09-28T15:06:19.930Z,95708.54
2022-09-28T15:08:48.147Z,95708.67
2022-09-28T15:11:21.582Z,95712.42
2022-09-28T15:13:53.980Z,95712.25
2022-09-28T15:16:25.115Z,95708.33
2022-09-28T15:19:21.199Z,95705.20
2022-09-28T15:21:51.220Z,95704.86
2022-09-28T15:24:31.933Z,95701.02
2022-09-28T15:27:19.215Z,95703.17
2022-09-28T15:30:03.570Z,95706.39
2022-09-28T15:32:32.305Z,95713.18
2022-09-28T15:35:17.227Z,95711.09
2022-09-28T15:37:45.424Z,95711.17
2022-09-28T15:40:17.255Z,95713.98
2022-09-28T15:42:46.249Z,95714.08
2022-09-28T15:45:14.296Z,95715.99
2022-09-28T15:47:43.821Z,95715.95
2022-09-28T15:50:27.048Z,95717.41
2022-09-28T15:53:01.671Z,95716.14
2022-09-28T15:55:42.495Z,95716.07
2022-09-28T15:58:22.030Z,95719.61
2022-09-28T16:01:12.206Z,95722.85
2022-09-28T16:03:40.404Z,95723.27
2022-09-28T16:06:10.623Z,95725.10
2022-09-28T16:08:43.383Z,95729.45
2022-09-28T16:11:28.128Z,95734.80
2022-09-28T16:14:01.845Z,95730.85
2022-09-28T16:16:35.485Z,95728.62
2022-09-28T16:19:04.636Z,95730.25
2022-09-28T16:22:00.093Z,95734.37
2022-09-28T16:24:39.147Z,95733.41
2022-09-28T16:27:23.622Z,95732.31
2022-09-28T16:30:10.564Z,95731.89
2022-09-28T16:33:11.886Z,95738.25
2022-09-28T16:35:42.628Z,95736.95
2022-09-28T16:38:15.892Z,95740.46
2022-09-28T16:40:48.060Z,95741.46
2022-09-28T16:43:27.845Z,95740.33
2022-09-28T16:46:07.387Z,95740.19
2022-09-28T16:48:40.608Z,95737.95
2022-09-28T16:51:08.748Z,95736.98
2022-09-28T16:53:55.483Z,95740.02
2022-09-28T16:56:23.679Z,95743.79
2022-09-28T16:58:51.738Z,95745.94
2022-09-28T17:01:21.251Z,95744.73
2022-09-28T17:03:50.362Z,95744.20
2022-09-28T17:06:20.731Z,95743.51
2022-09-28T17:08:48.606Z,95740.70
2022-09-28T17:11:24.250Z,95743.27
2022-09-28T17:14:03.134Z,95746.15
2022-09-28T17:19:24.474Z,95743.98
2022-09-28T17:21:53.559Z,95744.09
2022-09-28T17:24:21.907Z,95749.88
2022-09-28T17:26:52.255Z,95746.70
2022-09-28T17:29:20.378Z,95742.30
2022-09-28T17:31:48.563Z,95746.14
2022-09-28T17:34:17.325Z,95748.09
2022-09-28T17:36:45.920Z,95743.11
2022-09-28T17:39:19.266Z,95739.95
2022-09-28T17:41:47.822Z,95739.34
2022-09-28T17:44:22.013Z,95736.43
2022-09-28T17:46:53.517Z,95742.70
2022-09-28T17:49:21.820Z,95742.81
2022-09-28T17:51:54.906Z,95748.98
2022-09-28T17:54:23.366Z,95748.81
2022-09-28T17:56:55.012Z,95746.43
2022-09-28T17:59:23.875Z,95745.85
2022-09-28T18:02:03.414Z,95741.95
2022-09-28T18:04:51.862Z,95747.48
2022-09-28T18:07:21.538Z,95751.12
2022-09-28T18:10:07.272Z,95753.21
2022-09-28T18:12:41.106Z,95755.30
2022-09-28T18:15:11.090Z,95760.52
2022-09-28T18:17:42.754Z,95759.20
2022-09-28T18:20:12.923Z,95765.52
2022-09-28T18:22:41.532Z,95765.52
2022-09-28T18:25:11.230Z,95768.85
2022-09-28T18:27:39.533Z,95770.63
2022-09-28T18:30:08.189Z,95767.48
2022-09-28T18:32:37.489Z,95763.27
2022-09-28T18:35:09.396Z,95761.69
2022-09-28T18:37:41.833Z,95761.37
2022-09-28T18:40:19.366Z,95764.16
2022-09-28T18:42:52.473Z,95765.88
2022-09-28T18:45:21.945Z,95766.82
2022-09-28T18:47:52.549Z,95766.23
2022-09-28T18:50:21.362Z,95767.82
2022-09-28T18:52:50.726Z,95769.96
2022-09-28T18:55:19.578Z,95767.93
2022-09-28T18:57:49.546Z,95768.75
2022-09-28T19:00:19.997Z,95769.04
2022-09-28T19:03:05.722Z,95768.77
2022-09-28T19:05:36.550Z,95765.30
2022-09-28T19:08:07.538Z,95768.37
2022-09-28T19:10:35.973Z,95771.86
2022-09-28T19:13:07.055Z,95770.47
2022-09-28T19:15:35.546Z,95771.03
2022-09-28T19:18:04.864Z,95770.52
2022-09-28T19:20:34.328Z,95769.38
2022-09-28T19:23:02.756Z,95777.62
2022-09-28T19:25:35.241Z,95774.86
2022-09-28T19:28:08.626Z,95776.63
2022-09-28T19:30:37.706Z,95777.31
2022-09-28T19:33:19.536Z,95777.05
2022-09-28T19:36:05.640Z,95775.06
2022-09-28T19:38:48.083Z,95775.05
2022-09-28T19:41:44.476Z,95768.88
2022-09-28T19:44:25.381Z,95767.73
2022-09-28T19:47:07.821Z,95769.70
2022-09-28T19:49:42.630Z,95768.23
2022-09-28T19:52:18.743Z,95761.17
2022-09-28T19:54:58.087Z,95763.98
2022-09-28T19:57:30.859Z,95760.59
2022-09-28T20:00:03.884Z,95765.08
2022-09-28T20:02:37.568Z,95768.06
2022-09-28T20:05:05.814Z,95767.11
2022-09-28T20:07:36.323Z,95765.13
2022-09-28T20:10:05.455Z,95769.52
2022-09-28T20:12:35.896Z,95767.73
2022-09-28T20:15:18.826Z,95769.62
2022-09-28T20:17:51.329Z,95766.21
2022-09-28T20:20:19.818Z,95767.41
2022-09-28T20:22:48.636Z,95769.07
2022-09-28T20:25:17.081Z,95773.92
2022-09-28T20:27:46.276Z,95769.89
2022-09-28T20:30:15.411Z,95770.26
2022-09-28T20:33:28.537Z,95776.03
2022-09-28T20:35:57.978Z,95774.80
2022-09-28T20:38:26.374Z,95777.61
2022-09-28T20:40:55.163Z,95777.34
2022-09-28T20:43:24.523Z,95780.31
2022-09-28T20:45:53.105Z,95775.66
2022-09-28T20:48:21.531Z,95779.88
2022-09-28T20:50:58.796Z,95777.74
2022-09-28T20:53:52.721Z,95780.96
2022-09-28T20:56:37.928Z,95782.17
2022-09-28T20:59:11.859Z,95785.14
2022-09-28T21:01:44.177Z,95783.27
2022-09-28T21:04:13.064Z,95780.32
2022-09-28T21:06:43.276Z,95775.88
2022-09-28T21:09:13.621Z,95772.48
2022-09-28T21:11:44.204Z,95777.04
2022-09-28T21:14:22.462Z,95785.34
2022-09-28T21:16:52.878Z,95787.21
2022-09-28T21:19:38.700Z,95790.30
2022-09-28T21:22:13.646Z,95792.69
2022-09-28T21:24:45.674Z,95789.91
2022-09-28T21:27:14.022Z,95786.20
2022-09-28T21:29:42.518Z,95780.94
2022-09-28T21:32:10.989Z,95781.88
2022-09-28T21:34:39.644Z,95780.15
2022-09-28T21:37:08.586Z,95780.05
2022-09-28T21:39:36.671Z,95781.55
2022-09-28T21:42:07.016Z,95786.80
2022-09-28T21:44:35.238Z,95791.52
2022-09-28T21:47:04.133Z,95791.34
2022-09-28T21:49:32.801Z,95791.13
2022-09-28T21:52:02.249Z,95795.77
2022-09-28T21:54:30.459Z,95796.81
2022-09-28T21:56:58.872Z,95803.60
2022-09-28T21:59:27.580Z,95802.86
2022-09-28T22:01:56.758Z,95803.70
2022-09-28T22:04:26.574Z,95799.77
2022-09-28T22:06:54.963Z,95797.14
2022-09-28T22:09:23.086Z,95795.35
2022-09-28T22:11:51.864Z,95795.98
2022-09-28T22:14:22.649Z,95798.06
2022-09-28T22:16:53.761Z,95797.67
2022-09-28T22:19:22.130Z,95796.02
2022-09-28T22:21:54.021Z,95795.39
2022-09-28T22:24:24.007Z,95796.56
2022-09-28T22:26:52.195Z,95802.91
2022-09-28T22:29:21.846Z,95801.82
2022-09-28T22:31:53.057Z,95805.02
2022-09-28T22:34:22.014Z,95802.29
2022-09-28T22:36:51.954Z,95801.66
2022-09-28T22:39:22.737Z,95801.77
2022-09-28T22:41:54.747Z,95802.04
2022-09-28T22:44:25.866Z,95800.71
2022-09-28T22:46:54.858Z,95802.14
2022-09-28T22:49:26.861Z,95799.16
2022-09-28T22:51:55.421Z,95800.10
2022-09-28T22:54:23.690Z,95798.44
2022-09-28T22:57:01.971Z,95797.71
2022-09-28T22:59:31.920Z,95805.55
2022-09-28T23:02:03.353Z,95805.50
2022-09-28T23:04:35.593Z,95801.84
2022-09-28T23:07:04.419Z,95806.13
2022-09-28T23:09:35.416Z,95805.23
2022-09-28T23:12:03.865Z,95802.20
2022-09-28T23:14:34.668Z,95800.14
2022-09-28T23:17:02.746Z,95803.48
2022-09-28T23:19:31.598Z,95806.73
2022-09-28T23:22:01.714Z,95802.77
2022-09-28T23:24:32.514Z,95802.04
2022-09-28T23:27:00.632Z,95794.20
2022-09-28T23:29:29.545Z,95792.08
2022-09-28T23:31:58.324Z,95792.86
2022-09-28T23:34:26.838Z,95791.31
2022-09-28T23:36:56.892Z,95791.05
2022-09-28T23:39:25.120Z,95791.73
2022-09-28T23:41:53.909Z,95787.46
2022-09-28T23:44:22.185Z,95783.51
2022-09-28T23:46:52.568Z,95782.33
2022-09-28T23:49:21.266Z,95779.52
2022-09-28T23:51:49.530Z,95782.19
2022-09-28T23:54:21.213Z,95783.81
2022-09-28T23:56:49.652Z,95782.02
2022-09-28T23:59:17.954Z,95778.81
